sensor_id;sensor_type;location;lat;lon;timestamp;temperature;humidity
5009;DHT22;2523;51.058;6.922;2023-06-14T00:01:41;21.10;56.40
5009;DHT22;2523;51.058;6.922;2023-06-14T00:04:11;21.10;50.30
5009;DHT22;2523;51.058;6.922;2023-06-14T00:06:36;21.10;49.60
5009;DHT22;2523;51.058;6.922;2023-06-14T00:09:02;21.00;56.90
5009;DHT22;2523;51.058;6.922;2023-06-14T00:11:27;21.00;53.80
5009;DHT22;2523;51.058;6.922;2023-06-14T00:13:53;21.00;45.50
5009;DHT22;2523;51.058;6.922;2023-06-14T00:16:18;20.90;54.50
5009;DHT22;2523;51.058;6.922;2023-06-14T00:18:45;20.90;53.80
5009;DHT22;2523;51.058;6.922;2023-06-14T00:21:11;20.90;51.80
5009;DHT22;2523;51.058;6.922;2023-06-14T00:23:37;20.80;52.10
5009;DHT22;2523;51.058;6.922;2023-06-14T00:26:03;20.80;52.60
5009;DHT22;2523;51.058;6.922;2023-06-14T00:28:28;20.70;53.80
5009;DHT22;2523;51.058;6.922;2023-06-14T00:30:54;20.70;65.70
5009;DHT22;2523;51.058;6.922;2023-06-14T00:33:19;20.60;54.80
5009;DHT22;2523;51.058;6.922;2023-06-14T00:35:45;20.60;61.20
5009;DHT22;2523;51.058;6.922;2023-06-14T00:38:12;20.60;58.60
5009;DHT22;2523;51.058;6.922;2023-06-14T00:40:37;20.50;56.80
5009;DHT22;2523;51.058;6.922;2023-06-14T00:43:03;20.50;61.30
5009;DHT22;2523;51.058;6.922;2023-06-14T00:45:28;20.50;63.50
5009;DHT22;2523;51.058;6.922;2023-06-14T00:47:56;20.40;67.60
5009;DHT22;2523;51.058;6.922;2023-06-14T00:50:22;20.40;61.10
5009;DHT22;2523;51.058;6.922;2023-06-14T00:52:49;20.50;53.90
5009;DHT22;2523;51.058;6.922;2023-06-14T00:55:15;20.50;55.30
5009;DHT22;2523;51.058;6.922;2023-06-14T00:57:41;20.40;53.40
5009;DHT22;2523;51.058;6.922;2023-06-14T01:00:07;20.40;55.10
5009;DHT22;2523;51.058;6.922;2023-06-14T01:02:36;20.40;62.60
5009;DHT22;2523;51.058;6.922;2023-06-14T01:05:03;20.40;57.30
5009;DHT22;2523;51.058;6.922;2023-06-14T01:08:00;20.30;59.90
5009;DHT22;2523;51.058;6.922;2023-06-14T01:13:35;20.20;72.20
5009;DHT22;2523;51.058;6.922;2023-06-14T01:16:02;20.10;81.40
5009;DHT22;2523;51.058;6.922;2023-06-14T01:18:29;20.00;86.70
5009;DHT22;2523;51.058;6.922;2023-06-14T01:20:55;20.00;88.70
5009;DHT22;2523;51.058;6.922;2023-06-14T01:23:22;19.90;94.60
5009;DHT22;2523;51.058;6.922;2023-06-14T01:25:48;19.90;98.00
5009;DHT22;2523;51.058;6.922;2023-06-14T01:28:18;19.80;95.40
5009;DHT22;2523;51.058;6.922;2023-06-14T01:30:45;19.80;95.10
5009;DHT22;2523;51.058;6.922;2023-06-14T01:33:15;19.80;97.50
5009;DHT22;2523;51.058;6.922;2023-06-14T01:35:44;19.80;99.10
5009;DHT22;2523;51.058;6.922;2023-06-14T01:38:10;19.80;94.80
5009;DHT22;2523;51.058;6.922;2023-06-14T01:40:39;19.70;99.20
5009;DHT22;2523;51.058;6.922;2023-06-14T01:43:05;19.60;97.40
5009;DHT22;2523;51.058;6.922;2023-06-14T01:45:31;19.60;99.90
5009;DHT22;2523;51.058;6.922;2023-06-14T01:47:58;19.60;99.90
5009;DHT22;2523;51.058;6.922;2023-06-14T01:50:28;19.60;99.90
5009;DHT22;2523;51.058;6.922;2023-06-14T01:52:53;19.50;99.90
5009;DHT22;2523;51.058;6.922;2023-06-14T01:55:19;19.50;99.10
5009;DHT22;2523;51.058;6.922;2023-06-14T01:57:47;19.50;99.90
5009;DHT22;2523;51.058;6.922;2023-06-14T02:00:13;19.40;99.90
5009;DHT22;2523;51.058;6.922;2023-06-14T02:02:40;19.40;99.90
5009;DHT22;2523;51.058;6.922;2023-06-14T02:05:06;19.40;99.90
5009;DHT22;2523;51.058;6.922;2023-06-14T02:07:31;19.40;99.90
5009;DHT22;2523;51.058;6.922;2023-06-14T02:09:57;19.40;99.90
5009;DHT22;2523;51.058;6.922;2023-06-14T02:12:22;19.50;99.90
5009;DHT22;2523;51.058;6.922;2023-06-14T02:14:48;19.50;99.90
5009;DHT22;2523;51.058;6.922;2023-06-14T02:17:14;19.50;99.90
5009;DHT22;2523;51.058;6.922;2023-06-14T02:19:40;19.50;99.90
5009;DHT22;2523;51.058;6.922;2023-06-14T02:22:06;19.50;99.90
5009;DHT22;2523;51.058;6.922;2023-06-14T02:24:32;19.50;99.90
5009;DHT22;2523;51.058;6.922;2023-06-14T02:26:57;19.40;99.90
5009;DHT22;2523;51.058;6.922;2023-06-14T02:29:23;19.40;99.90
5009;DHT22;2523;51.058;6.922;2023-06-14T02:31:48;19.30;99.90
5009;DHT22;2523;51.058;6.922;2023-06-14T02:34:15;19.30;99.90
5009;DHT22;2523;51.058;6.922;2023-06-14T02:36:42;19.30;99.90
5009;DHT22;2523;51.058;6.922;2023-06-14T02:39:09;19.30;99.90
5009;DHT22;2523;51.058;6.922;2023-06-14T02:41:35;19.20;99.90
5009;DHT22;2523;51.058;6.922;2023-06-14T02:44:00;19.20;99.90
5009;DHT22;2523;51.058;6.922;2023-06-14T02:46:26;19.10;96.40
5009;DHT22;2523;51.058;6.922;2023-06-14T02:48:51;18.90;99.90
5009;DHT22;2523;51.058;6.922;2023-06-14T02:51:17;18.80;99.90
5009;DHT22;2523;51.058;6.922;2023-06-14T02:53:42;18.80;97.90
5009;DHT22;2523;51.058;6.922;2023-06-14T02:56:09;18.70;99.90
5009;DHT22;2523;51.058;6.922;2023-06-14T02:58:36;18.70;99.90
5009;DHT22;2523;51.058;6.922;2023-06-14T03:01:02;18.70;99.90
5009;DHT22;2523;51.058;6.922;2023-06-14T03:03:29;18.70;99.90
5009;DHT22;2523;51.058;6.922;2023-06-14T03:05:55;18.80;99.90
5009;DHT22;2523;51.058;6.922;2023-06-14T03:08:20;18.80;99.90
5009;DHT22;2523;51.058;6.922;2023-06-14T03:10:46;18.80;99.90
5009;DHT22;2523;51.058;6.922;2023-06-14T03:13:13;18.80;99.90
5009;DHT22;2523;51.058;6.922;2023-06-14T03:15:38;18.80;99.90
5009;DHT22;2523;51.058;6.922;2023-06-14T03:18:10;18.90;99.90
5009;DHT22;2523;51.058;6.922;2023-06-14T03:20:37;18.80;99.90
5009;DHT22;2523;51.058;6.922;2023-06-14T03:23:03;18.90;99.90
5009;DHT22;2523;51.058;6.922;2023-06-14T03:25:30;18.90;99.90
5009;DHT22;2523;51.058;6.922;2023-06-14T03:27:57;18.90;99.90
5009;DHT22;2523;51.058;6.922;2023-06-14T03:30:22;18.80;99.90
5009;DHT22;2523;51.058;6.922;2023-06-14T03:32:48;18.90;99.90
5009;DHT22;2523;51.058;6.922;2023-06-14T03:35:13;18.80;99.90
5009;DHT22;2523;51.058;6.922;2023-06-14T03:37:46;18.80;99.90
5009;DHT22;2523;51.058;6.922;2023-06-14T03:40:12;18.80;99.90
5009;DHT22;2523;51.058;6.922;2023-06-14T03:42:39;18.80;99.90
5009;DHT22;2523;51.058;6.922;2023-06-14T03:45:05;18.70;99.90
5009;DHT22;2523;51.058;6.922;2023-06-14T03:47:31;18.70;99.90
5009;DHT22;2523;51.058;6.922;2023-06-14T03:49:57;18.70;99.90
5009;DHT22;2523;51.058;6.922;2023-06-14T03:52:22;18.70;99.90
5009;DHT22;2523;51.058;6.922;2023-06-14T03:54:49;18.70;99.90
5009;DHT22;2523;51.058;6.922;2023-06-14T03:57:15;18.70;99.90
5009;DHT22;2523;51.058;6.922;2023-06-14T03:59:40;18.70;99.90
5009;DHT22;2523;51.058;6.922;2023-06-14T04:02:06;18.70;99.90
5009;DHT22;2523;51.058;6.922;2023-06-14T04:04:32;18.70;99.90
5009;DHT22;2523;51.058;6.922;2023-06-14T04:06:58;18.70;99.90
5009;DHT22;2523;51.058;6.922;2023-06-14T04:09:26;18.70;99.90
5009;DHT22;2523;51.058;6.922;2023-06-14T04:11:55;18.70;99.90
5009;DHT22;2523;51.058;6.922;2023-06-14T04:14:21;18.70;99.90
5009;DHT22;2523;51.058;6.922;2023-06-14T04:16:48;18.80;99.90
5009;DHT22;2523;51.058;6.922;2023-06-14T04:19:14;18.70;99.90
5009;DHT22;2523;51.058;6.922;2023-06-14T04:21:40;18.80;99.90
5009;DHT22;2523;51.058;6.922;2023-06-14T04:24:06;18.80;99.90
5009;DHT22;2523;51.058;6.922;2023-06-14T04:26:32;18.90;99.90
5009;DHT22;2523;51.058;6.922;2023-06-14T04:28:59;18.90;99.90
5009;DHT22;2523;51.058;6.922;2023-06-14T04:31:31;18.90;99.90
5009;DHT22;2523;51.058;6.922;2023-06-14T04:33:59;19.00;99.90
5009;DHT22;2523;51.058;6.922;2023-06-14T04:36:25;19.00;99.90
5009;DHT22;2523;51.058;6.922;2023-06-14T04:38:52;19.10;99.90
5009;DHT22;2523;51.058;6.922;2023-06-14T04:41:22;19.20;99.90
5009;DHT22;2523;51.058;6.922;2023-06-14T04:43:54;19.20;99.90
5009;DHT22;2523;51.058;6.922;2023-06-14T04:46:19;19.30;99.90
5009;DHT22;2523;51.058;6.922;2023-06-14T04:48:45;19.30;99.90
5009;DHT22;2523;51.058;6.922;2023-06-14T04:51:11;19.40;99.90
5009;DHT22;2523;51.058;6.922;2023-06-14T04:53:38;19.50;99.90
5009;DHT22;2523;51.058;6.922;2023-06-14T04:56:04;19.50;99.90
5009;DHT22;2523;51.058;6.922;2023-06-14T04:58:29;19.60;99.90
5009;DHT22;2523;51.058;6.922;2023-06-14T05:00:55;19.60;99.90
5009;DHT22;2523;51.058;6.922;2023-06-14T05:03:22;19.60;99.90
5009;DHT22;2523;51.058;6.922;2023-06-14T05:05:49;19.60;99.90
5009;DHT22;2523;51.058;6.922;2023-06-14T05:08:16;19.60;99.90
5009;DHT22;2523;51.058;6.922;2023-06-14T05:10:41;19.60;99.90
5009;DHT22;2523;51.058;6.922;2023-06-14T05:13:07;19.60;99.90
5009;DHT22;2523;51.058;6.922;2023-06-14T05:15:33;19.70;99.90
5009;DHT22;2523;51.058;6.922;2023-06-14T05:17:59;19.80;99.90
5009;DHT22;2523;51.058;6.922;2023-06-14T05:20:25;19.90;99.90
5009;DHT22;2523;51.058;6.922;2023-06-14T05:22:52;20.00;99.90
5009;DHT22;2523;51.058;6.922;2023-06-14T05:25:19;20.00;99.90
5009;DHT22;2523;51.058;6.922;2023-06-14T05:27:45;20.20;99.90
5009;DHT22;2523;51.058;6.922;2023-06-14T05:30:11;20.10;99.90
5009;DHT22;2523;51.058;6.922;2023-06-14T05:32:37;20.20;96.10
5009;DHT22;2523;51.058;6.922;2023-06-14T05:35:03;20.20;96.80
5009;DHT22;2523;51.058;6.922;2023-06-14T05:37:29;20.30;96.20
5009;DHT22;2523;51.058;6.922;2023-06-14T05:39:56;20.30;93.70
5009;DHT22;2523;51.058;6.922;2023-06-14T05:42:21;20.40;95.30
5009;DHT22;2523;51.058;6.922;2023-06-14T05:44:47;20.50;92.20
5009;DHT22;2523;51.058;6.922;2023-06-14T05:47:12;20.60;75.60
5009;DHT22;2523;51.058;6.922;2023-06-14T05:49:38;20.70;65.70
5009;DHT22;2523;51.058;6.922;2023-06-14T05:52:04;20.80;64.00
5009;DHT22;2523;51.058;6.922;2023-06-14T05:54:30;20.80;70.30
5009;DHT22;2523;51.058;6.922;2023-06-14T05:56:55;20.80;69.30
5009;DHT22;2523;51.058;6.922;2023-06-14T05:59:21;20.90;71.80
5009;DHT22;2523;51.058;6.922;2023-06-14T06:01:47;20.90;65.20
5009;DHT22;2523;51.058;6.922;2023-06-14T06:04:12;21.00;70.20
5009;DHT22;2523;51.058;6.922;2023-06-14T06:06:38;21.00;70.50
5009;DHT22;2523;51.058;6.922;2023-06-14T06:09:05;21.00;76.40
5009;DHT22;2523;51.058;6.922;2023-06-14T06:11:31;21.10;71.10
5009;DHT22;2523;51.058;6.922;2023-06-14T06:13:57;21.20;68.20
5009;DHT22;2523;51.058;6.922;2023-06-14T06:16:22;21.20;54.80
5009;DHT22;2523;51.058;6.922;2023-06-14T06:18:48;21.10;58.10
5009;DHT22;2523;51.058;6.922;2023-06-14T06:21:13;21.20;62.00
5009;DHT22;2523;51.058;6.922;2023-06-14T06:23:39;21.10;51.40
5009;DHT22;2523;51.058;6.922;2023-06-14T06:26:04;21.20;48.50
5009;DHT22;2523;51.058;6.922;2023-06-14T06:28:30;21.10;52.40
5009;DHT22;2523;51.058;6.922;2023-06-14T06:30:56;21.10;46.40
5009;DHT22;2523;51.058;6.922;2023-06-14T06:33:21;21.20;49.30
5009;DHT22;2523;51.058;6.922;2023-06-14T06:35:47;21.30;45.90
5009;DHT22;2523;51.058;6.922;2023-06-14T06:38:12;21.40;47.90
5009;DHT22;2523;51.058;6.922;2023-06-14T06:40:38;21.40;42.90
5009;DHT22;2523;51.058;6.922;2023-06-14T06:43:04;21.50;40.20
5009;DHT22;2523;51.058;6.922;2023-06-14T06:45:29;21.60;40.50
5009;DHT22;2523;51.058;6.922;2023-06-14T06:47:56;21.60;38.10
5009;DHT22;2523;51.058;6.922;2023-06-14T06:50:21;21.60;46.40
5009;DHT22;2523;51.058;6.922;2023-06-14T06:52:50;21.50;39.20
5009;DHT22;2523;51.058;6.922;2023-06-14T06:55:16;21.70;43.00
5009;DHT22;2523;51.058;6.922;2023-06-14T06:57:41;21.70;35.20
5009;DHT22;2523;51.058;6.922;2023-06-14T07:00:07;21.70;36.40
5009;DHT22;2523;51.058;6.922;2023-06-14T07:02:35;21.70;34.80
5009;DHT22;2523;51.058;6.922;2023-06-14T07:05:00;21.80;32.00
5009;DHT22;2523;51.058;6.922;2023-06-14T07:07:26;21.80;32.90
5009;DHT22;2523;51.058;6.922;2023-06-14T07:09:51;21.80;28.80
5009;DHT22;2523;51.058;6.922;2023-06-14T07:12:17;21.90;28.20
5009;DHT22;2523;51.058;6.922;2023-06-14T07:14:43;22.00;27.80
5009;DHT22;2523;51.058;6.922;2023-06-14T07:17:09;22.10;26.60
5009;DHT22;2523;51.058;6.922;2023-06-14T07:19:35;22.20;25.10
5009;DHT22;2523;51.058;6.922;2023-06-14T07:22:00;22.20;26.50
5009;DHT22;2523;51.058;6.922;2023-06-14T07:24:26;22.30;25.30
5009;DHT22;2523;51.058;6.922;2023-06-14T07:26:53;22.20;22.80
5009;DHT22;2523;51.058;6.922;2023-06-14T07:29:20;22.10;21.90
5009;DHT22;2523;51.058;6.922;2023-06-14T07:31:46;22.20;23.00
5009;DHT22;2523;51.058;6.922;2023-06-14T07:34:12;22.30;21.30
5009;DHT22;2523;51.058;6.922;2023-06-14T07:36:37;22.40;21.50
5009;DHT22;2523;51.058;6.922;2023-06-14T07:39:03;22.60;20.30
5009;DHT22;2523;51.058;6.922;2023-06-14T07:41:29;22.70;19.40
5009;DHT22;2523;51.058;6.922;2023-06-14T07:43:55;22.80;18.10
5009;DHT22;2523;51.058;6.922;2023-06-14T07:46:20;22.80;18.30
5009;DHT22;2523;51.058;6.922;2023-06-14T07:48:46;22.90;15.60
5009;DHT22;2523;51.058;6.922;2023-06-14T07:51:11;22.80;14.50
5009;DHT22;2523;51.058;6.922;2023-06-14T07:53:37;22.80;14.10
5009;DHT22;2523;51.058;6.922;2023-06-14T07:56:03;22.70;13.60
5009;DHT22;2523;51.058;6.922;2023-06-14T07:58:28;22.80;14.00
5009;DHT22;2523;51.058;6.922;2023-06-14T08:00:54;22.80;12.30
5009;DHT22;2523;51.058;6.922;2023-06-14T08:03:20;23.00;10.60
5009;DHT22;2523;51.058;6.922;2023-06-14T08:05:45;23.00;9.70
5009;DHT22;2523;51.058;6.922;2023-06-14T08:08:11;23.10;8.30
5009;DHT22;2523;51.058;6.922;2023-06-14T08:10:36;23.10;9.20
5009;DHT22;2523;51.058;6.922;2023-06-14T08:13:02;23.20;8.50
5009;DHT22;2523;51.058;6.922;2023-06-14T08:15:27;23.20;7.90
5009;DHT22;2523;51.058;6.922;2023-06-14T08:17:53;23.30;8.10
5009;DHT22;2523;51.058;6.922;2023-06-14T08:20:18;23.40;8.50
5009;DHT22;2523;51.058;6.922;2023-06-14T08:22:44;23.40;8.20
5009;DHT22;2523;51.058;6.922;2023-06-14T08:25:11;23.40;9.50
5009;DHT22;2523;51.058;6.922;2023-06-14T08:27:37;23.40;9.40
5009;DHT22;2523;51.058;6.922;2023-06-14T08:30:03;23.40;8.80
5009;DHT22;2523;51.058;6.922;2023-06-14T08:32:29;23.50;8.40
5009;DHT22;2523;51.058;6.922;2023-06-14T08:34:54;23.50;7.50
5009;DHT22;2523;51.058;6.922;2023-06-14T08:37:20;23.60;8.00
5009;DHT22;2523;51.058;6.922;2023-06-14T08:39:46;23.80;7.90
5009;DHT22;2523;51.058;6.922;2023-06-14T08:42:12;23.70;7.80
5009;DHT22;2523;51.058;6.922;2023-06-14T08:44:39;23.80;8.40
5009;DHT22;2523;51.058;6.922;2023-06-14T08:47:06;23.80;7.50
5009;DHT22;2523;51.058;6.922;2023-06-14T08:49:32;23.70;7.30
5009;DHT22;2523;51.058;6.922;2023-06-14T08:52:00;23.60;8.00
5009;DHT22;2523;51.058;6.922;2023-06-14T08:54:29;23.70;8.90
5009;DHT22;2523;51.058;6.922;2023-06-14T08:57:02;23.80;8.10
5009;DHT22;2523;51.058;6.922;2023-06-14T08:59:29;23.90;8.00
5009;DHT22;2523;51.058;6.922;2023-06-14T09:01:59;24.10;10.10
5009;DHT22;2523;51.058;6.922;2023-06-14T09:04:25;24.00;8.10
5009;DHT22;2523;51.058;6.922;2023-06-14T09:06:55;24.10;8.70
5009;DHT22;2523;51.058;6.922;2023-06-14T09:09:21;24.30;8.80
5009;DHT22;2523;51.058;6.922;2023-06-14T09:11:49;24.10;8.20
5009;DHT22;2523;51.058;6.922;2023-06-14T09:14:15;24.10;7.80
5009;DHT22;2523;51.058;6.922;2023-06-14T09:16:41;24.30;8.90
5009;DHT22;2523;51.058;6.922;2023-06-14T09:19:06;24.40;7.90
5009;DHT22;2523;51.058;6.922;2023-06-14T09:21:34;24.50;8.70
5009;DHT22;2523;51.058;6.922;2023-06-14T09:24:01;24.70;8.30
5009;DHT22;2523;51.058;6.922;2023-06-14T09:26:27;24.60;7.90
5009;DHT22;2523;51.058;6.922;2023-06-14T09:28:53;24.60;8.00
5009;DHT22;2523;51.058;6.922;2023-06-14T09:31:19;24.80;9.50
5009;DHT22;2523;51.058;6.922;2023-06-14T09:33:47;24.80;8.70
5009;DHT22;2523;51.058;6.922;2023-06-14T09:36:25;24.80;9.50
5009;DHT22;2523;51.058;6.922;2023-06-14T09:38:54;24.70;7.80
5009;DHT22;2523;51.058;6.922;2023-06-14T09:41:21;24.70;7.70
5009;DHT22;2523;51.058;6.922;2023-06-14T09:43:55;24.60;8.00
5009;DHT22;2523;51.058;6.922;2023-06-14T09:46:22;24.60;8.70
5009;DHT22;2523;51.058;6.922;2023-06-14T09:48:48;24.80;9.20
5009;DHT22;2523;51.058;6.922;2023-06-14T09:51:15;24.60;9.50
5009;DHT22;2523;51.058;6.922;2023-06-14T09:53:43;24.70;10.00
5009;DHT22;2523;51.058;6.922;2023-06-14T09:56:09;24.80;9.60
5009;DHT22;2523;51.058;6.922;2023-06-14T09:58:37;24.60;9.70
5009;DHT22;2523;51.058;6.922;2023-06-14T10:01:06;24.90;9.90
5009;DHT22;2523;51.058;6.922;2023-06-14T10:03:34;24.90;9.70
5009;DHT22;2523;51.058;6.922;2023-06-14T10:06:02;25.10;10.10
5009;DHT22;2523;51.058;6.922;2023-06-14T10:08:32;24.90;9.70
5009;DHT22;2523;51.058;6.922;2023-06-14T10:11:02;24.90;9.60
5009;DHT22;2523;51.058;6.922;2023-06-14T10:13:31;25.00;10.20
5009;DHT22;2523;51.058;6.922;2023-06-14T10:16:16;25.20;11.30
5009;DHT22;2523;51.058;6.922;2023-06-14T10:18:48;25.30;12.30
5009;DHT22;2523;51.058;6.922;2023-06-14T10:23:56;25.50;13.40
5009;DHT22;2523;51.058;6.922;2023-06-14T10:26:24;25.70;12.30
5009;DHT22;2523;51.058;6.922;2023-06-14T10:29:16;24.90;11.50
5009;DHT22;2523;51.058;6.922;2023-06-14T10:31:48;25.20;13.20
5009;DHT22;2523;51.058;6.922;2023-06-14T10:34:30;25.30;13.30
5009;DHT22;2523;51.058;6.922;2023-06-14T10:37:04;25.60;13.40
5009;DHT22;2523;51.058;6.922;2023-06-14T10:39:31;25.90;13.30
5009;DHT22;2523;51.058;6.922;2023-06-14T10:41:57;26.00;13.70
5009;DHT22;2523;51.058;6.922;2023-06-14T10:46:49;26.00;12.00
5009;DHT22;2523;51.058;6.922;2023-06-14T10:49:18;26.00;13.20
5009;DHT22;2523;51.058;6.922;2023-06-14T10:51:50;26.10;11.90
5009;DHT22;2523;51.058;6.922;2023-06-14T10:54:17;26.00;12.70
5009;DHT22;2523;51.058;6.922;2023-06-14T10:56:52;26.10;12.30
5009;DHT22;2523;51.058;6.922;2023-06-14T10:59:19;26.50;13.00
5009;DHT22;2523;51.058;6.922;2023-06-14T11:02:27;26.70;12.00
5009;DHT22;2523;51.058;6.922;2023-06-14T11:05:03;26.70;12.90
5009;DHT22;2523;51.058;6.922;2023-06-14T11:10:26;26.60;12.40
5009;DHT22;2523;51.058;6.922;2023-06-14T11:12:57;26.60;12.10
5009;DHT22;2523;51.058;6.922;2023-06-14T11:15:29;26.70;10.50
5009;DHT22;2523;51.058;6.922;2023-06-14T11:17:56;26.80;11.60
5009;DHT22;2523;51.058;6.922;2023-06-14T11:20:25;26.90;10.20
5009;DHT22;2523;51.058;6.922;2023-06-14T11:22:52;27.20;10.70
5009;DHT22;2523;51.058;6.922;2023-06-14T11:25:18;27.10;9.40
5009;DHT22;2523;51.058;6.922;2023-06-14T11:27:43;27.00;8.70
5009;DHT22;2523;51.058;6.922;2023-06-14T11:30:09;27.10;9.10
5009;DHT22;2523;51.058;6.922;2023-06-14T11:32:36;27.40;9.10
5009;DHT22;2523;51.058;6.922;2023-06-14T11:35:03;27.50;8.50
5009;DHT22;2523;51.058;6.922;2023-06-14T11:37:30;27.80;7.90
5009;DHT22;2523;51.058;6.922;2023-06-14T11:39:57;27.80;7.30
5009;DHT22;2523;51.058;6.922;2023-06-14T11:42:24;27.90;6.40
5009;DHT22;2523;51.058;6.922;2023-06-14T11:44:50;27.70;5.40
5009;DHT22;2523;51.058;6.922;2023-06-14T11:47:15;27.80;6.60
5009;DHT22;2523;51.058;6.922;2023-06-14T11:49:41;28.30;8.00
5009;DHT22;2523;51.058;6.922;2023-06-14T11:52:07;28.50;7.70
5009;DHT22;2523;51.058;6.922;2023-06-14T11:54:33;29.00;7.30
5009;DHT22;2523;51.058;6.922;2023-06-14T11:56:59;28.50;6.50
5009;DHT22;2523;51.058;6.922;2023-06-14T11:59:25;28.40;7.60
5009;DHT22;2523;51.058;6.922;2023-06-14T12:01:53;28.40;5.10
5009;DHT22;2523;51.058;6.922;2023-06-14T12:04:29;28.40;5.50
5009;DHT22;2523;51.058;6.922;2023-06-14T12:06:55;28.60;6.10
5009;DHT22;2523;51.058;6.922;2023-06-14T12:09:23;28.50;3.50
5009;DHT22;2523;51.058;6.922;2023-06-14T12:11:59;28.40;3.80
5009;DHT22;2523;51.058;6.922;2023-06-14T12:14:30;28.40;4.10
5009;DHT22;2523;51.058;6.922;2023-06-14T12:17:04;28.70;4.00
5009;DHT22;2523;51.058;6.922;2023-06-14T12:19:31;28.10;3.00
5009;DHT22;2523;51.058;6.922;2023-06-14T12:21:59;28.10;3.70
5009;DHT22;2523;51.058;6.922;2023-06-14T12:24:29;28.50;4.10
5009;DHT22;2523;51.058;6.922;2023-06-14T12:26:57;28.10;3.70
5009;DHT22;2523;51.058;6.922;2023-06-14T12:29:25;28.00;3.60
5009;DHT22;2523;51.058;6.922;2023-06-14T12:31:50;28.30;3.80
5009;DHT22;2523;51.058;6.922;2023-06-14T12:34:16;28.50;4.10
5009;DHT22;2523;51.058;6.922;2023-06-14T12:36:41;28.50;3.40
5009;DHT22;2523;51.058;6.922;2023-06-14T12:39:10;28.50;3.80
5009;DHT22;2523;51.058;6.922;2023-06-14T12:41:36;28.40;3.50
5009;DHT22;2523;51.058;6.922;2023-06-14T12:44:02;27.70;3.30
5009;DHT22;2523;51.058;6.922;2023-06-14T12:46:30;27.90;4.10
5009;DHT22;2523;51.058;6.922;2023-06-14T12:48:56;28.00;1.20
5009;DHT22;2523;51.058;6.922;2023-06-14T12:51:22;28.30;1.70
5009;DHT22;2523;51.058;6.922;2023-06-14T12:53:48;28.40;1.00
5009;DHT22;2523;51.058;6.922;2023-06-14T12:56:14;28.60;1.00
5009;DHT22;2523;51.058;6.922;2023-06-14T12:58:41;29.00;1.00
5009;DHT22;2523;51.058;6.922;2023-06-14T13:01:07;29.00;1.00
5009;DHT22;2523;51.058;6.922;2023-06-14T13:03:32;29.20;1.00
5009;DHT22;2523;51.058;6.922;2023-06-14T13:06:01;29.20;1.00
5009;DHT22;2523;51.058;6.922;2023-06-14T13:08:27;29.20;1.00
5009;DHT22;2523;51.058;6.922;2023-06-14T13:10:53;29.50;1.00
5009;DHT22;2523;51.058;6.922;2023-06-14T13:13:19;29.80;1.00
5009;DHT22;2523;51.058;6.922;2023-06-14T13:15:44;30.20;1.00
5009;DHT22;2523;51.058;6.922;2023-06-14T13:18:11;29.50;1.00
5009;DHT22;2523;51.058;6.922;2023-06-14T13:20:38;29.40;1.00
5009;DHT22;2523;51.058;6.922;2023-06-14T13:23:04;29.00;1.00
5009;DHT22;2523;51.058;6.922;2023-06-14T13:25:33;28.80;1.00
5009;DHT22;2523;51.058;6.922;2023-06-14T13:27:58;29.20;2.10
5009;DHT22;2523;51.058;6.922;2023-06-14T13:30:24;29.40;1.00
5009;DHT22;2523;51.058;6.922;2023-06-14T13:32:50;29.30;1.00
5009;DHT22;2523;51.058;6.922;2023-06-14T13:35:17;29.60;1.00
5009;DHT22;2523;51.058;6.922;2023-06-14T13:37:43;29.50;1.00
5009;DHT22;2523;51.058;6.922;2023-06-14T13:40:09;29.10;1.40
5009;DHT22;2523;51.058;6.922;2023-06-14T13:42:35;29.20;1.30
5009;DHT22;2523;51.058;6.922;2023-06-14T13:45:02;29.40;2.20
5009;DHT22;2523;51.058;6.922;2023-06-14T13:47:28;29.20;1.70
5009;DHT22;2523;51.058;6.922;2023-06-14T13:49:54;29.00;1.00
5009;DHT22;2523;51.058;6.922;2023-06-14T13:52:19;29.00;1.00
5009;DHT22;2523;51.058;6.922;2023-06-14T13:54:45;29.20;1.00
5009;DHT22;2523;51.058;6.922;2023-06-14T13:57:10;29.00;1.00
5009;DHT22;2523;51.058;6.922;2023-06-14T13:59:38;29.00;1.00
5009;DHT22;2523;51.058;6.922;2023-06-14T14:02:04;29.30;1.00
5009;DHT22;2523;51.058;6.922;2023-06-14T14:04:31;29.10;1.00
5009;DHT22;2523;51.058;6.922;2023-06-14T14:06:56;29.10;1.00
5009;DHT22;2523;51.058;6.922;2023-06-14T14:09:22;29.30;1.00
5009;DHT22;2523;51.058;6.922;2023-06-14T14:11:48;29.30;1.00
5009;DHT22;2523;51.058;6.922;2023-06-14T14:14:14;29.30;1.00
5009;DHT22;2523;51.058;6.922;2023-06-14T14:16:40;29.40;1.00
5009;DHT22;2523;51.058;6.922;2023-06-14T14:19:05;29.40;1.00
5009;DHT22;2523;51.058;6.922;2023-06-14T14:21:32;29.30;1.00
5009;DHT22;2523;51.058;6.922;2023-06-14T14:23:58;29.50;1.00
5009;DHT22;2523;51.058;6.922;2023-06-14T14:26:23;29.70;1.00
5009;DHT22;2523;51.058;6.922;2023-06-14T14:28:50;28.80;1.00
5009;DHT22;2523;51.058;6.922;2023-06-14T14:31:16;28.80;1.00
5009;DHT22;2523;51.058;6.922;2023-06-14T14:33:41;28.90;1.00
5009;DHT22;2523;51.058;6.922;2023-06-14T14:36:07;29.30;1.00
5009;DHT22;2523;51.058;6.922;2023-06-14T14:38:33;29.30;1.00
5009;DHT22;2523;51.058;6.922;2023-06-14T14:40:59;29.50;1.00
5009;DHT22;2523;51.058;6.922;2023-06-14T14:43:24;29.60;1.00
5009;DHT22;2523;51.058;6.922;2023-06-14T14:45:50;29.60;1.00
5009;DHT22;2523;51.058;6.922;2023-06-14T14:48:16;29.20;1.00
5009;DHT22;2523;51.058;6.922;2023-06-14T14:50:41;28.80;1.00
5009;DHT22;2523;51.058;6.922;2023-06-14T14:53:07;29.00;1.00
5009;DHT22;2523;51.058;6.922;2023-06-14T14:55:32;28.70;1.00
5009;DHT22;2523;51.058;6.922;2023-06-14T14:58:00;28.80;1.00
5009;DHT22;2523;51.058;6.922;2023-06-14T15:00:26;28.50;1.00
5009;DHT22;2523;51.058;6.922;2023-06-14T15:02:51;28.70;1.00
5009;DHT22;2523;51.058;6.922;2023-06-14T15:05:17;28.60;1.00
5009;DHT22;2523;51.058;6.922;2023-06-14T15:07:42;28.70;1.00
5009;DHT22;2523;51.058;6.922;2023-06-14T15:10:10;28.70;1.00
5009;DHT22;2523;51.058;6.922;2023-06-14T15:12:35;28.70;1.00
5009;DHT22;2523;51.058;6.922;2023-06-14T15:15:01;28.10;1.00
5009;DHT22;2523;51.058;6.922;2023-06-14T15:17:27;27.90;1.00
5009;DHT22;2523;51.058;6.922;2023-06-14T15:19:53;27.90;1.00
5009;DHT22;2523;51.058;6.922;2023-06-14T15:22:18;28.00;1.00
5009;DHT22;2523;51.058;6.922;2023-06-14T15:24:44;27.90;1.00
5009;DHT22;2523;51.058;6.922;2023-06-14T15:27:11;27.60;1.00
5009;DHT22;2523;51.058;6.922;2023-06-14T15:29:41;27.50;1.00
5009;DHT22;2523;51.058;6.922;2023-06-14T15:32:08;27.50;1.00
5009;DHT22;2523;51.058;6.922;2023-06-14T15:34:33;27.50;1.00
5009;DHT22;2523;51.058;6.922;2023-06-14T15:36:59;27.50;1.00
5009;DHT22;2523;51.058;6.922;2023-06-14T15:39:25;27.50;1.00
5009;DHT22;2523;51.058;6.922;2023-06-14T15:41:52;27.40;1.00
5009;DHT22;2523;51.058;6.922;2023-06-14T15:44:18;27.20;1.00
5009;DHT22;2523;51.058;6.922;2023-06-14T15:46:43;27.10;1.00
5009;DHT22;2523;51.058;6.922;2023-06-14T15:49:09;27.10;1.00
5009;DHT22;2523;51.058;6.922;2023-06-14T15:51:36;27.10;1.00
5009;DHT22;2523;51.058;6.922;2023-06-14T15:54:02;27.20;1.00
5009;DHT22;2523;51.058;6.922;2023-06-14T15:56:27;27.00;1.00
5009;DHT22;2523;51.058;6.922;2023-06-14T15:58:53;26.90;1.00
5009;DHT22;2523;51.058;6.922;2023-06-14T16:01:18;26.70;1.00
5009;DHT22;2523;51.058;6.922;2023-06-14T16:03:44;26.70;1.00
5009;DHT22;2523;51.058;6.922;2023-06-14T16:06:10;26.70;1.00
5009;DHT22;2523;51.058;6.922;2023-06-14T16:08:35;26.70;1.00
5009;DHT22;2523;51.058;6.922;2023-06-14T16:11:01;26.70;1.00
5009;DHT22;2523;51.058;6.922;2023-06-14T16:13:26;26.80;1.00
5009;DHT22;2523;51.058;6.922;2023-06-14T16:15:52;26.80;1.00
5009;DHT22;2523;51.058;6.922;2023-06-14T16:18:17;26.60;1.00